Time;durP1;ratioP1;P1;durP2;ratioP2;P2;SDS_P1;SDS_P2;PMS_P1;PMS_P2;Temp;Humidity;BMP_temperature;BMP_pressure;BME280_temperature;BME280_humidity;BME280_pressure;Samples;Min_cycle;Max_cycle;Signal;HPM_P1;HPM_P2
2022/11/23 00:01:14;;;;;;;;;;;13.50;54.00;;;;;;5073975;28;19960;-87
2022/11/23 00:03:40;;;;;;;;;;;13.50;54.00;;;;;;5051650;28;19920;-87
2022/11/23 00:06:05;;;;;;;;;;;13.50;53.90;;;;;;5070109;28;20247;-87
2022/11/23 00:08:31;;;;;;;;;;;13.50;53.90;;;;;;5077415;28;20339;-87
2022/11/23 00:10:57;;;;;;;;;;;13.50;53.90;;;;;;5055797;28;19923;-86
2022/11/23 00:13:23;;;;;;;;;;;13.50;53.90;;;;;;5076548;28;19916;-88
2022/11/23 00:15:48;;;;;;;;;;;13.60;54.00;;;;;;5052668;28;19937;-87
2022/11/23 00:18:14;;;;;;;;;;;13.50;53.80;;;;;;5086280;28;19916;-87
2022/11/23 00:20:39;;;;;;;;;;;13.60;53.90;;;;;;5078341;28;19947;-87
2022/11/23 00:23:05;;;;;;;;;;;13.70;53.70;;;;;;5054916;28;20317;-87
2022/11/23 00:25:30;;;;;;;;;;;13.70;53.60;;;;;;5052630;28;19924;-87
2022/11/23 00:27:56;;;;;;;;;;;13.80;53.50;;;;;;5081417;28;19919;-88
2022/11/23 00:30:21;;;;;;;;;;;13.70;53.30;;;;;;5059173;28;20279;-87
2022/11/23 00:32:47;;;;;;;;;;;13.80;53.20;;;;;;5044472;28;19963;-87
2022/11/23 00:35:12;;;;;;;;;;;13.80;53.60;;;;;;5074166;28;19938;-87
2022/11/23 00:37:38;;;;;;;;;;;13.80;53.70;;;;;;5051266;28;19962;-87
2022/11/23 00:40:04;;;;;;;;;;;13.70;54.40;;;;;;5051319;28;19913;-86
2022/11/23 00:42:29;;;;;;;;;;;13.60;54.90;;;;;;5052121;28;19913;-88
2022/11/23 00:44:55;;;;;;;;;;;13.50;55.20;;;;;;5044890;28;19921;-87
2022/11/23 00:47:21;;;;;;;;;;;13.50;55.60;;;;;;5067000;28;19913;-88
2022/11/23 00:49:46;;;;;;;;;;;13.40;55.70;;;;;;5070048;28;20343;-88
2022/11/23 00:52:11;;;;;;;;;;;13.40;55.90;;;;;;5070776;28;19916;-88
2022/11/23 00:54:37;;;;;;;;;;;13.40;56.00;;;;;;5078475;28;19986;-88
2022/11/23 00:57:02;;;;;;;;;;;13.40;56.20;;;;;;5054776;28;19913;-88
2022/11/23 00:59:28;;;;;;;;;;;13.40;56.50;;;;;;5070163;28;19920;-87
2022/11/23 01:01:54;;;;;;;;;;;13.30;57.00;;;;;;5069895;28;19956;-88
2022/11/23 01:04:19;;;;;;;;;;;13.30;57.40;;;;;;5082034;28;19928;-88
2022/11/23 01:06:45;;;;;;;;;;;13.30;57.70;;;;;;5051545;28;19919;-87
2022/11/23 01:09:16;;;;;;;;;;;13.30;58.10;;;;;;5050700;28;19913;-87
2022/11/23 01:11:42;;;;;;;;;;;13.30;58.20;;;;;;5036928;28;19994;-87
2022/11/23 01:14:08;;;;;;;;;;;13.30;58.50;;;;;;5054370;28;19908;-87
2022/11/23 01:16:34;;;;;;;;;;;13.30;58.70;;;;;;5056008;28;19919;-88
2022/11/23 01:19:01;;;;;;;;;;;13.30;58.90;;;;;;5073408;28;19923;-87
2022/11/23 01:21:31;;;;;;;;;;;13.30;59.20;;;;;;5054754;28;20000;-88
2022/11/23 01:23:56;;;;;;;;;;;13.30;59.30;;;;;;5055497;28;19920;-87
2022/11/23 01:26:22;;;;;;;;;;;13.30;59.50;;;;;;5055145;28;19939;-88
2022/11/23 01:28:48;;;;;;;;;;;13.20;59.60;;;;;;5055338;28;20383;-87
2022/11/23 01:31:18;;;;;;;;;;;13.30;59.80;;;;;;5055208;28;19946;-88
2022/11/23 01:33:44;;;;;;;;;;;13.30;60.10;;;;;;5073713;28;19923;-88
2022/11/23 01:36:11;;;;;;;;;;;13.30;60.30;;;;;;5055236;28;19913;-88
2022/11/23 01:38:36;;;;;;;;;;;13.20;60.40;;;;;;5053447;28;19925;-88
2022/11/23 01:41:03;;;;;;;;;;;13.20;60.30;;;;;;5054444;28;19916;-87
2022/11/23 01:43:29;;;;;;;;;;;13.20;60.60;;;;;;5081156;28;19926;-86
2022/11/23 01:45:56;;;;;;;;;;;13.20;60.60;;;;;;5044720;28;20468;-88
2022/11/23 01:48:27;;;;;;;;;;;13.20;60.60;;;;;;5055386;28;20286;-87
2022/11/23 01:50:53;;;;;;;;;;;13.30;60.90;;;;;;5072967;28;19927;-86
2022/11/23 01:53:19;;;;;;;;;;;13.30;60.70;;;;;;5062738;28;19912;-87
2022/11/23 01:55:45;;;;;;;;;;;13.30;60.70;;;;;;5072682;28;19912;-86
2022/11/23 01:58:12;;;;;;;;;;;13.40;60.80;;;;;;5055055;28;19971;-87
2022/11/23 02:00:37;;;;;;;;;;;13.50;60.80;;;;;;5053412;28;19916;-86
2022/11/23 02:03:04;;;;;;;;;;;13.50;60.40;;;;;;5078301;28;20007;-86
2022/11/23 02:05:32;;;;;;;;;;;13.50;60.50;;;;;;5074080;28;19920;-87
2022/11/23 02:07:59;;;;;;;;;;;13.60;60.40;;;;;;5055294;28;19999;-87
2022/11/23 02:10:24;;;;;;;;;;;13.60;60.10;;;;;;5061607;28;20691;-88
2022/11/23 02:12:51;;;;;;;;;;;13.70;59.90;;;;;;5048370;28;19923;-86
2022/11/23 02:15:17;;;;;;;;;;;13.70;59.90;;;;;;5071972;28;19971;-86
2022/11/23 02:17:43;;;;;;;;;;;13.70;59.70;;;;;;5051305;28;19916;-87
2022/11/23 02:20:10;;;;;;;;;;;13.70;59.60;;;;;;5054572;28;19923;-85
2022/11/23 02:22:51;;;;;;;;;;;13.80;59.70;;;;;;5056498;28;19923;-86
2022/11/23 02:25:36;;;;;;;;;;;13.80;59.80;;;;;;5053662;28;20019;-87
2022/11/23 02:28:02;;;;;;;;;;;13.80;59.50;;;;;;5048209;28;19916;-86
2022/11/23 02:30:29;;;;;;;;;;;13.80;59.70;;;;;;5060645;28;19912;-86
2022/11/23 02:32:55;;;;;;;;;;;13.90;59.40;;;;;;5058243;28;19916;-86
2022/11/23 02:35:20;;;;;;;;;;;13.90;59.20;;;;;;5050235;28;19923;-87
2022/11/23 02:37:47;;;;;;;;;;;13.90;59.20;;;;;;5053472;28;19920;-87
2022/11/23 02:40:19;;;;;;;;;;;14.00;58.90;;;;;;5052871;28;19958;-87
2022/11/23 02:42:45;;;;;;;;;;;14.00;59.00;;;;;;5053852;28;19916;-86
2022/11/23 02:45:17;;;;;;;;;;;14.00;59.20;;;;;;5039970;28;19920;-86
2022/11/23 02:47:43;;;;;;;;;;;14.00;59.10;;;;;;5058286;28;19916;-87
2022/11/23 02:50:09;;;;;;;;;;;14.00;58.80;;;;;;5073221;28;19923;-87
2022/11/23 02:52:34;;;;;;;;;;;14.00;58.70;;;;;;5073321;28;20413;-87
2022/11/23 02:55:00;;;;;;;;;;;14.00;58.60;;;;;;5075412;28;19916;-87
2022/11/23 02:57:25;;;;;;;;;;;14.10;58.70;;;;;;5071409;28;19920;-86
2022/11/23 02:59:51;;;;;;;;;;;14.20;58.70;;;;;;5053503;28;19966;-86
2022/11/23 03:02:16;;;;;;;;;;;14.20;58.80;;;;;;5049028;28;19913;-88
2022/11/23 03:04:41;;;;;;;;;;;14.20;58.70;;;;;;5074510;28;20562;-86
2022/11/23 03:07:07;;;;;;;;;;;14.20;58.30;;;;;;5054413;28;19956;-88
2022/11/23 03:09:32;;;;;;;;;;;14.20;58.70;;;;;;5052305;28;19913;-86
2022/11/23 03:11:58;;;;;;;;;;;14.20;58.80;;;;;;5052349;28;19966;-86
2022/11/23 03:14:24;;;;;;;;;;;14.30;58.70;;;;;;5060468;28;19912;-87
2022/11/23 03:16:50;;;;;;;;;;;14.20;58.80;;;;;;5052812;28;19955;-86
2022/11/23 03:19:18;;;;;;;;;;;14.10;58.80;;;;;;5053650;28;19939;-87
2022/11/23 03:21:43;;;;;;;;;;;14.10;58.90;;;;;;5051984;28;19916;-87
2022/11/23 03:24:09;;;;;;;;;;;14.00;59.10;;;;;;5078176;28;19970;-87
2022/11/23 03:26:34;;;;;;;;;;;14.00;58.90;;;;;;5071428;28;19912;-87
2022/11/23 03:29:00;;;;;;;;;;;14.00;59.40;;;;;;5085191;28;20359;-86
2022/11/23 03:31:25;;;;;;;;;;;14.00;59.50;;;;;;5057995;28;19957;-87
2022/11/23 03:33:51;;;;;;;;;;;14.00;59.50;;;;;;5055848;28;19919;-88
2022/11/23 03:36:17;;;;;;;;;;;14.00;59.90;;;;;;5055940;28;19919;-88
2022/11/23 03:38:42;;;;;;;;;;;14.10;59.50;;;;;;5082787;28;19920;-87
2022/11/23 03:41:08;;;;;;;;;;;14.10;59.60;;;;;;5076892;28;19912;-87
2022/11/23 03:43:33;;;;;;;;;;;14.20;59.70;;;;;;5055271;28;20002;-88
2022/11/23 03:45:59;;;;;;;;;;;14.10;59.40;;;;;;5042189;28;19974;-87
2022/11/23 03:48:24;;;;;;;;;;;14.20;59.30;;;;;;5052079;28;19981;-86
2022/11/23 03:50:51;;;;;;;;;;;14.00;59.70;;;;;;5052342;28;20321;-86
2022/11/23 03:53:17;;;;;;;;;;;13.90;60.10;;;;;;5048691;28;19912;-85
2022/11/23 03:55:44;;;;;;;;;;;13.80;60.40;;;;;;5055723;28;19974;-89
2022/11/23 03:58:10;;;;;;;;;;;13.70;60.80;;;;;;5052094;28;19935;-86
2022/11/23 04:00:35;;;;;;;;;;;13.70;61.20;;;;;;5061962;28;19920;-86
2022/11/23 04:03:01;;;;;;;;;;;13.60;61.50;;;;;;5051336;28;19913;-86
2022/11/23 04:05:26;;;;;;;;;;;13.60;61.60;;;;;;5051999;28;20260;-86
2022/11/23 04:07:52;;;;;;;;;;;13.50;61.70;;;;;;5074344;28;20289;-86
2022/11/23 04:10:18;;;;;;;;;;;13.50;61.80;;;;;;5081707;28;20398;-86
2022/11/23 04:12:44;;;;;;;;;;;13.50;61.90;;;;;;5047830;28;20168;-85
2022/11/23 04:15:09;;;;;;;;;;;13.50;62.10;;;;;;5074686;28;19920;-86
2022/11/23 04:17:35;;;;;;;;;;;13.50;62.20;;;;;;5071707;28;20015;-85
2022/11/23 04:20:00;;;;;;;;;;;13.50;62.30;;;;;;5065204;28;19912;-85
2022/11/23 04:22:26;;;;;;;;;;;13.50;62.50;;;;;;5059558;28;20458;-86
2022/11/23 04:24:51;;;;;;;;;;;13.40;62.50;;;;;;5076757;28;19916;-87
2022/11/23 04:27:17;;;;;;;;;;;13.50;62.40;;;;;;5070783;28;19917;-88
2022/11/23 04:29:42;;;;;;;;;;;13.40;62.50;;;;;;5053438;28;19917;-86
2022/11/23 04:32:08;;;;;;;;;;;13.50;62.50;;;;;;5069458;28;19917;-88
2022/11/23 04:34:33;;;;;;;;;;;13.50;62.40;;;;;;5051196;28;19954;-85
2022/11/23 04:36:59;;;;;;;;;;;13.50;62.40;;;;;;5069704;28;20371;-86
2022/11/23 04:39:24;;;;;;;;;;;13.60;62.40;;;;;;5067484;28;19965;-85
2022/11/23 04:41:50;;;;;;;;;;;13.50;62.60;;;;;;5051434;28;19942;-86
2022/11/23 04:44:16;;;;;;;;;;;13.50;62.50;;;;;;5075542;28;19916;-87
2022/11/23 04:46:41;;;;;;;;;;;13.60;62.30;;;;;;5064035;28;19920;-87
2022/11/23 04:49:08;;;;;;;;;;;13.50;62.30;;;;;;5088100;28;20343;-86
2022/11/23 04:51:33;;;;;;;;;;;13.50;62.30;;;;;;5057125;28;19912;-86
2022/11/23 04:53:59;;;;;;;;;;;13.50;62.00;;;;;;5062071;28;19915;-88
2022/11/23 04:56:24;;;;;;;;;;;13.30;61.80;;;;;;5050843;28;19927;-87
2022/11/23 04:58:50;;;;;;;;;;;13.30;61.80;;;;;;5054662;28;20543;-88
2022/11/23 05:01:15;;;;;;;;;;;13.20;61.90;;;;;;5056767;28;20294;-85
2022/11/23 05:03:41;;;;;;;;;;;13.20;62.10;;;;;;5083761;28;19916;-86
2022/11/23 05:06:08;;;;;;;;;;;13.10;62.50;;;;;;5057144;28;19917;-88
2022/11/23 05:08:33;;;;;;;;;;;13.10;62.30;;;;;;5064524;28;20320;-86
2022/11/23 05:10:59;;;;;;;;;;;13.10;62.30;;;;;;5060350;28;19920;-88
2022/11/23 05:13:24;;;;;;;;;;;13.10;62.30;;;;;;5077927;28;19916;-88
2022/11/23 05:15:50;;;;;;;;;;;13.00;62.30;;;;;;5056080;28;19977;-87
2022/11/23 05:18:16;;;;;;;;;;;13.00;62.30;;;;;;5061630;28;19919;-86
2022/11/23 05:20:41;;;;;;;;;;;13.00;62.30;;;;;;5066739;28;19917;-86
2022/11/23 05:23:07;;;;;;;;;;;13.00;62.30;;;;;;5060989;28;19923;-85
2022/11/23 05:25:32;;;;;;;;;;;12.90;62.10;;;;;;5054384;28;19925;-85
2022/11/23 05:27:58;;;;;;;;;;;12.80;62.00;;;;;;5059528;28;20282;-86
2022/11/23 05:30:24;;;;;;;;;;;12.80;62.20;;;;;;5062275;28;19967;-87
2022/11/23 05:32:49;;;;;;;;;;;12.80;62.30;;;;;;5043060;28;20007;-87
2022/11/23 05:35:15;;;;;;;;;;;12.80;62.40;;;;;;5054416;28;20019;-85
2022/11/23 05:37:41;;;;;;;;;;;12.80;62.40;;;;;;5059258;28;19913;-85
2022/11/23 05:40:07;;;;;;;;;;;12.80;62.40;;;;;;5068440;28;19912;-85
2022/11/23 05:42:33;;;;;;;;;;;12.80;62.40;;;;;;5069304;28;20011;-86
2022/11/23 05:44:58;;;;;;;;;;;12.90;62.50;;;;;;5053553;28;19920;-85
2022/11/23 05:47:24;;;;;;;;;;;12.90;62.80;;;;;;5049506;28;20015;-86
2022/11/23 05:49:49;;;;;;;;;;;12.90;62.80;;;;;;5055864;28;19940;-88
2022/11/23 05:52:15;;;;;;;;;;;13.00;63.00;;;;;;5075157;28;19923;-86
2022/11/23 05:54:41;;;;;;;;;;;13.10;63.20;;;;;;5081097;28;19923;-86
2022/11/23 05:57:06;;;;;;;;;;;13.20;63.20;;;;;;5073357;28;19912;-85
2022/11/23 05:59:32;;;;;;;;;;;13.30;63.00;;;;;;5055877;28;20351;-85
2022/11/23 06:01:57;;;;;;;;;;;13.30;62.90;;;;;;5072781;28;19920;-88
2022/11/23 06:04:23;;;;;;;;;;;13.30;62.80;;;;;;5057221;28;19916;-86
2022/11/23 06:06:48;;;;;;;;;;;13.50;62.80;;;;;;5072268;28;19917;-87
2022/11/23 06:09:14;;;;;;;;;;;13.50;62.80;;;;;;5052361;28;19974;-85
2022/11/23 06:11:39;;;;;;;;;;;13.50;62.70;;;;;;5070392;28;20509;-85
2022/11/23 06:14:05;;;;;;;;;;;13.50;62.60;;;;;;5064131;28;19912;-86
2022/11/23 06:16:30;;;;;;;;;;;13.50;62.60;;;;;;5073434;28;19948;-87
2022/11/23 06:18:56;;;;;;;;;;;13.50;62.70;;;;;;5068370;28;19955;-86
2022/11/23 06:21:22;;;;;;;;;;;13.40;62.80;;;;;;5057834;28;19961;-86
2022/11/23 06:23:47;;;;;;;;;;;13.50;62.90;;;;;;5053853;28;20003;-86
2022/11/23 06:26:13;;;;;;;;;;;13.50;62.90;;;;;;5073246;28;20390;-85
2022/11/23 06:28:44;;;;;;;;;;;13.50;62.90;;;;;;5090861;28;19916;-87
2022/11/23 06:31:10;;;;;;;;;;;13.50;63.00;;;;;;5057152;28;20003;-86
2022/11/23 06:33:35;;;;;;;;;;;13.50;63.10;;;;;;5058348;28;19951;-85
2022/11/23 06:36:02;;;;;;;;;;;13.50;63.00;;;;;;5050022;28;19919;-86
2022/11/23 06:38:28;;;;;;;;;;;13.40;63.10;;;;;;5043625;28;19920;-88
2022/11/23 06:41:00;;;;;;;;;;;13.40;63.10;;;;;;5044947;28;20267;-87
2022/11/23 06:43:26;;;;;;;;;;;13.40;63.20;;;;;;5075702;28;19986;-88
2022/11/23 06:45:52;;;;;;;;;;;13.40;63.20;;;;;;5041767;28;20765;-86
2022/11/23 06:48:17;;;;;;;;;;;13.50;63.30;;;;;;5081202;28;20004;-85
2022/11/23 06:50:43;;;;;;;;;;;13.50;63.30;;;;;;5070864;28;19916;-85
2022/11/23 06:53:11;;;;;;;;;;;13.50;63.20;;;;;;5085682;28;19912;-88
2022/11/23 06:55:36;;;;;;;;;;;13.50;63.20;;;;;;5066761;28;20022;-87
2022/11/23 06:58:02;;;;;;;;;;;13.50;63.20;;;;;;5076077;28;20454;-86
2022/11/23 07:00:27;;;;;;;;;;;13.50;63.20;;;;;;5071880;28;19913;-86
2022/11/23 07:02:53;;;;;;;;;;;13.50;63.30;;;;;;5065272;28;19951;-86
2022/11/23 07:05:19;;;;;;;;;;;13.50;63.30;;;;;;5052173;28;19927;-86
2022/11/23 07:07:45;;;;;;;;;;;13.50;63.40;;;;;;5088867;28;19913;-88
2022/11/23 07:10:11;;;;;;;;;;;13.50;63.40;;;;;;5073364;28;20017;-88
2022/11/23 07:12:39;;;;;;;;;;;13.50;63.50;;;;;;5080755;28;19917;-88
2022/11/23 07:15:06;;;;;;;;;;;13.50;63.30;;;;;;5058150;28;19923;-88
2022/11/23 07:17:31;;;;;;;;;;;13.50;63.40;;;;;;5074730;28;19920;-89
2022/11/23 07:19:56;;;;;;;;;;;13.60;63.30;;;;;;5087215;28;20445;-86
2022/11/23 07:22:22;;;;;;;;;;;13.70;63.40;;;;;;5060566;28;19966;-86
2022/11/23 07:24:48;;;;;;;;;;;13.70;63.20;;;;;;5046589;28;19925;-86
2022/11/23 07:27:15;;;;;;;;;;;13.70;63.20;;;;;;5085794;28;19959;-88
2022/11/23 07:29:41;;;;;;;;;;;13.70;63.10;;;;;;5072707;28;20393;-87
2022/11/23 07:32:07;;;;;;;;;;;13.80;63.00;;;;;;5050284;28;19952;-88
2022/11/23 07:34:32;;;;;;;;;;;13.80;63.20;;;;;;5050924;28;20420;-86
2022/11/23 07:36:58;;;;;;;;;;;13.80;63.00;;;;;;5070776;28;19917;-87
2022/11/23 07:39:24;;;;;;;;;;;13.90;63.00;;;;;;5069100;28;19912;-87
2022/11/23 07:41:49;;;;;;;;;;;13.90;63.10;;;;;;5069846;28;19923;-87
2022/11/23 07:44:15;;;;;;;;;;;13.90;62.90;;;;;;5069941;28;19929;-88
2022/11/23 07:46:40;;;;;;;;;;;14.00;63.00;;;;;;5040906;28;19920;-86
2022/11/23 07:49:06;;;;;;;;;;;14.00;62.90;;;;;;5045947;28;19909;-88
2022/11/23 07:51:32;;;;;;;;;;;14.00;62.90;;;;;;5057811;28;20402;-87
2022/11/23 07:53:58;;;;;;;;;;;14.10;62.90;;;;;;5078088;28;19961;-88
2022/11/23 07:56:23;;;;;;;;;;;14.10;62.90;;;;;;5056819;28;19913;-88
2022/11/23 07:58:55;;;;;;;;;;;14.20;63.10;;;;;;5070980;28;19924;-89
2022/11/23 08:01:21;;;;;;;;;;;14.20;63.00;;;;;;5050568;28;19916;-89
2022/11/23 08:03:47;;;;;;;;;;;14.20;63.10;;;;;;5041243;28;20997;-88
2022/11/23 08:06:13;;;;;;;;;;;14.30;63.00;;;;;;5064536;28;19928;-86
2022/11/23 08:08:38;;;;;;;;;;;14.30;62.90;;;;;;5077674;28;19927;-86
2022/11/23 08:11:05;;;;;;;;;;;14.40;62.60;;;;;;5080453;28;19916;-86
2022/11/23 08:13:31;;;;;;;;;;;14.40;62.50;;;;;;5077825;28;19920;-89
2022/11/23 08:15:56;;;;;;;;;;;14.40;62.60;;;;;;5047564;28;19951;-90
2022/11/23 08:18:25;;;;;;;;;;;14.40;62.50;;;;;;5053171;28;19921;-86
2022/11/23 08:20:50;;;;;;;;;;;14.50;62.50;;;;;;5045579;28;19921;-88
2022/11/23 08:23:16;;;;;;;;;;;14.50;62.40;;;;;;5056190;28;20350;-87
2022/11/23 08:25:42;;;;;;;;;;;14.50;62.40;;;;;;5052454;28;19924;-86
2022/11/23 08:28:08;;;;;;;;;;;14.60;62.50;;;;;;5048060;28;20037;-89
2022/11/23 08:30:33;;;;;;;;;;;14.70;62.30;;;;;;5053153;28;19919;-86
2022/11/23 08:33:03;;;;;;;;;;;14.70;62.20;;;;;;5052045;28;19929;-86
2022/11/23 08:35:29;;;;;;;;;;;14.80;62.20;;;;;;5057607;28;20738;-87
2022/11/23 08:37:57;;;;;;;;;;;14.80;61.90;;;;;;5048990;28;20012;-86
2022/11/23 08:40:22;;;;;;;;;;;14.90;62.20;;;;;;5078881;28;19916;-86
2022/11/23 08:42:48;;;;;;;;;;;14.90;62.10;;;;;;5074641;28;19961;-87
2022/11/23 08:45:14;;;;;;;;;;;15.10;61.90;;;;;;5047810;28;19932;-87
2022/11/23 08:47:40;;;;;;;;;;;15.20;62.10;;;;;;5053865;28;19947;-86
2022/11/23 08:50:06;;;;;;;;;;;15.40;62.30;;;;;;5051376;28;19916;-86
2022/11/23 08:52:32;;;;;;;;;;;15.50;61.70;;;;;;5052883;28;19917;-88
2022/11/23 08:54:57;;;;;;;;;;;15.50;61.70;;;;;;5052295;28;19916;-89
2022/11/23 08:57:23;;;;;;;;;;;15.50;61.00;;;;;;5053835;28;20100;-86
2022/11/23 08:59:48;;;;;;;;;;;15.60;60.90;;;;;;5087202;28;19917;-88
2022/11/23 09:02:14;;;;;;;;;;;15.50;61.10;;;;;;5082360;28;19916;-87
2022/11/23 09:04:40;;;;;;;;;;;15.60;60.50;;;;;;5041026;28;19925;-86
2022/11/23 09:07:06;;;;;;;;;;;15.50;60.70;;;;;;5049591;28;20276;-85
2022/11/23 09:09:31;;;;;;;;;;;15.50;60.60;;;;;;5053054;28;19978;-87
2022/11/23 09:11:57;;;;;;;;;;;15.40;60.90;;;;;;5051560;28;19928;-89
2022/11/23 09:14:22;;;;;;;;;;;15.30;60.50;;;;;;5066557;28;20006;-89
2022/11/23 09:16:48;;;;;;;;;;;15.30;60.80;;;;;;5046484;28;20011;-86
2022/11/23 09:19:13;;;;;;;;;;;15.30;60.90;;;;;;5036716;28;19915;-88
2022/11/23 09:21:41;;;;;;;;;;;15.30;61.30;;;;;;5065638;28;19920;-90
2022/11/23 09:24:08;;;;;;;;;;;15.40;61.90;;;;;;5068466;28;19966;-88
2022/11/23 09:26:36;;;;;;;;;;;15.70;63.30;;;;;;5070856;28;19967;-87
2022/11/23 09:29:02;;;;;;;;;;;16.10;63.50;;;;;;5055485;28;19916;-90
2022/11/23 09:31:28;;;;;;;;;;;16.30;62.90;;;;;;5053133;28;20626;-88
2022/11/23 09:33:54;;;;;;;;;;;16.40;62.20;;;;;;5072582;28;19970;-88
2022/11/23 09:36:21;;;;;;;;;;;16.50;62.00;;;;;;5072583;28;20322;-87
2022/11/23 09:38:47;;;;;;;;;;;16.60;61.80;;;;;;5068482;28;19955;-85
2022/11/23 09:41:33;;;;;;;;;;;16.70;61.50;;;;;;5066675;28;19970;-86
2022/11/23 09:44:07;;;;;;;;;;;16.70;61.50;;;;;;5010151;28;20427;-85
2022/11/23 09:46:51;;;;;;;;;;;16.60;60.70;;;;;;5052053;28;19925;-88
2022/11/23 09:49:19;;;;;;;;;;;16.50;59.70;;;;;;5049688;28;20006;-86
2022/11/23 09:51:45;;;;;;;;;;;16.40;60.30;;;;;;5045995;28;19921;-88
2022/11/23 09:54:25;;;;;;;;;;;16.30;60.10;;;;;;5077912;28;19970;-86
2022/11/23 09:56:52;;;;;;;;;;;16.30;60.50;;;;;;5051535;28;19925;-88
2022/11/23 09:59:20;;;;;;;;;;;16.30;60.30;;;;;;5036041;28;19948;-89
2022/11/23 10:01:46;;;;;;;;;;;16.50;60.60;;;;;;5078096;28;20645;-87
2022/11/23 10:04:16;;;;;;;;;;;16.60;61.00;;;;;;5060127;28;19917;-88
2022/11/23 10:06:42;;;;;;;;;;;16.80;61.20;;;;;;5059783;28;19921;-89
2022/11/23 10:09:08;;;;;;;;;;;17.00;61.10;;;;;;5047789;28;19919;-88
2022/11/23 10:11:52;;;;;;;;;;;17.10;61.20;;;;;;5080339;28;19934;-87
2022/11/23 10:14:26;;;;;;;;;;;17.30;61.10;;;;;;5051112;28;20291;-86
2022/11/23 10:16:59;;;;;;;;;;;17.40;61.40;;;;;;5045567;28;19932;-86
2022/11/23 10:19:31;;;;;;;;;;;17.70;60.80;;;;;;5078473;28;19923;-88
2022/11/23 10:22:00;;;;;;;;;;;17.80;60.30;;;;;;5076006;28;20022;-88
2022/11/23 10:24:30;;;;;;;;;;;17.90;59.40;;;;;;5073097;28;20029;-88
2022/11/23 10:26:56;;;;;;;;;;;18.00;58.50;;;;;;5056325;28;19920;-87
2022/11/23 10:29:29;;;;;;;;;;;18.10;58.30;;;;;;5031582;28;19923;-88
2022/11/23 10:31:57;;;;;;;;;;;18.20;59.00;;;;;;5068457;28;19928;-87
2022/11/23 10:34:32;;;;;;;;;;;18.30;59.00;;;;;;5073472;28;20309;-89
2022/11/23 10:36:58;;;;;;;;;;;18.40;56.20;;;;;;5062884;28;19924;-87
2022/11/23 10:39:25;;;;;;;;;;;18.70;58.40;;;;;;5061660;28;20402;-88
2022/11/23 10:41:51;;;;;;;;;;;19.00;59.00;;;;;;5069410;28;19924;-88
2022/11/23 10:44:17;;;;;;;;;;;19.30;58.80;;;;;;5067075;28;20320;-89
2022/11/23 10:46:43;;;;;;;;;;;19.70;58.60;;;;;;5044583;28;19948;-89
2022/11/23 10:49:16;;;;;;;;;;;20.00;58.70;;;;;;5077205;28;20322;-88
2022/11/23 10:51:49;;;;;;;;;;;20.20;56.70;;;;;;5039274;28;19974;-88
2022/11/23 10:54:23;;;;;;;;;;;20.20;56.10;;;;;;5067686;28;20015;-88
2022/11/23 10:56:50;;;;;;;;;;;20.30;56.40;;;;;;5059052;28;20371;-88
2022/11/23 10:59:38;;;;;;;;;;;20.30;54.70;;;;;;5069197;28;19912;-87
2022/11/23 11:02:17;;;;;;;;;;;20.20;53.80;;;;;;5058031;28;19917;-88
2022/11/23 11:04:44;;;;;;;;;;;20.30;54.70;;;;;;5056163;28;19935;-89
2022/11/23 11:07:30;;;;;;;;;;;20.60;53.00;;;;;;5054543;28;19916;-89
2022/11/23 11:09:57;;;;;;;;;;;20.80;51.70;;;;;;5065367;28;19916;-87
2022/11/23 11:12:23;;;;;;;;;;;21.20;51.40;;;;;;5063817;28;20010;-87
2022/11/23 11:14:55;;;;;;;;;;;21.40;52.30;;;;;;5061616;28;19919;-88
2022/11/23 11:17:25;;;;;;;;;;;21.60;50.40;;;;;;5076829;28;20382;-88
2022/11/23 11:19:51;;;;;;;;;;;21.60;46.40;;;;;;5049986;28;19916;-88
2022/11/23 11:22:25;;;;;;;;;;;21.50;44.20;;;;;;5046182;28;19924;-87
2022/11/23 11:24:52;;;;;;;;;;;21.50;44.10;;;;;;5060975;28;19928;-87
2022/11/23 11:27:25;;;;;;;;;;;21.40;44.60;;;;;;5074402;28;20282;-88
2022/11/23 11:29:52;;;;;;;;;;;21.40;44.40;;;;;;5041667;28;19928;-87
2022/11/23 11:32:20;;;;;;;;;;;21.30;42.90;;;;;;5061432;28;19970;-87
2022/11/23 11:34:54;;;;;;;;;;;21.30;43.00;;;;;;5057598;28;19917;-88
2022/11/23 11:37:25;;;;;;;;;;;21.30;42.80;;;;;;5070689;28;19916;-88
2022/11/23 11:39:54;;;;;;;;;;;21.10;40.40;;;;;;5038831;28;20386;-87
2022/11/23 11:42:33;;;;;;;;;;;21.00;40.90;;;;;;5073238;28;19923;-87
2022/11/23 11:45:01;;;;;;;;;;;20.80;39.50;;;;;;5068117;28;19921;-88
2022/11/23 11:47:32;;;;;;;;;;;20.70;40.50;;;;;;5054329;28;20363;-87
2022/11/23 11:50:00;;;;;;;;;;;20.40;39.20;;;;;;5056016;28;20367;-89
2022/11/23 11:52:32;;;;;;;;;;;20.30;39.90;;;;;;5052254;28;19920;-87
2022/11/23 11:55:06;;;;;;;;;;;20.30;41.20;;;;;;5053867;28;20287;-88
2022/11/23 11:57:48;;;;;;;;;;;20.00;39.70;;;;;;5052650;28;19916;-88
2022/11/23 12:00:16;;;;;;;;;;;19.60;39.60;;;;;;5050764;28;19924;-86
2022/11/23 12:02:50;;;;;;;;;;;19.20;40.60;;;;;;5049439;28;19963;-87
2022/11/23 12:05:24;;;;;;;;;;;19.00;41.40;;;;;;5055413;28;19932;-88
2022/11/23 12:08:02;;;;;;;;;;;18.80;42.40;;;;;;5069184;28;19919;-88
2022/11/23 12:10:47;;;;;;;;;;;18.60;41.90;;;;;;5060898;28;19966;-86
2022/11/23 12:13:15;;;;;;;;;;;18.40;41.90;;;;;;5075118;28;19916;-86
2022/11/23 12:15:45;;;;;;;;;;;18.20;42.00;;;;;;5055731;28;19956;-87
2022/11/23 12:18:14;;;;;;;;;;;18.10;42.70;;;;;;5057109;28;19927;-87
2022/11/23 12:21:01;;;;;;;;;;;17.90;42.10;;;;;;5063192;28;19917;-87
2022/11/23 12:23:27;;;;;;;;;;;17.80;42.00;;;;;;5075161;28;20619;-88
2022/11/23 12:26:01;;;;;;;;;;;17.70;42.60;;;;;;5056567;28;19925;-88
2022/11/23 12:28:30;;;;;;;;;;;17.60;43.00;;;;;;5080163;28;19920;-87
2022/11/23 12:31:04;;;;;;;;;;;17.50;42.40;;;;;;5053082;28;20312;-88
2022/11/23 12:33:38;;;;;;;;;;;17.30;42.30;;;;;;5049467;28;19939;-88
2022/11/23 12:36:19;;;;;;;;;;;17.30;41.90;;;;;;5046403;28;19917;-87
2022/11/23 12:38:57;;;;;;;;;;;17.30;42.40;;;;;;5075854;28;19916;-88
2022/11/23 12:41:25;;;;;;;;;;;17.20;42.80;;;;;;5057090;28;20322;-88
2022/11/23 12:44:06;;;;;;;;;;;17.20;43.40;;;;;;5052943;28;20746;-88
2022/11/23 12:46:47;;;;;;;;;;;17.20;43.40;;;;;;5068900;28;19920;-88
2022/11/23 12:49:31;;;;;;;;;;;17.10;43.30;;;;;;5084032;28;20306;-87
2022/11/23 12:52:15;;;;;;;;;;;17.10;43.30;;;;;;5039097;28;20007;-89
2022/11/23 12:54:41;;;;;;;;;;;17.20;43.70;;;;;;5064381;28;19925;-87
2022/11/23 12:57:25;;;;;;;;;;;17.20;43.60;;;;;;5068195;28;19982;-88
2022/11/23 12:59:58;;;;;;;;;;;17.20;43.10;;;;;;5050064;28;19922;-87
2022/11/23 13:02:42;;;;;;;;;;;17.20;43.80;;;;;;5053048;28;19916;-88
2022/11/23 13:05:20;;;;;;;;;;;17.10;43.10;;;;;;5052699;28;19932;-88
2022/11/23 13:07:49;;;;;;;;;;;17.10;43.70;;;;;;5038014;28;19907;-88
2022/11/23 13:10:28;;;;;;;;;;;17.20;43.40;;;;;;5066070;28;20015;-87
2022/11/23 13:12:54;;;;;;;;;;;17.10;43.00;;;;;;5072803;28;20011;-87
2022/11/23 13:15:40;;;;;;;;;;;17.20;43.20;;;;;;5057903;28;20118;-87
2022/11/23 13:18:12;;;;;;;;;;;17.10;43.30;;;;;;5033349;28;20341;-87
2022/11/23 13:20:40;;;;;;;;;;;17.20;43.50;;;;;;5056693;28;19927;-87
2022/11/23 13:23:06;;;;;;;;;;;17.20;43.90;;;;;;5079542;28;19908;-88
2022/11/23 13:25:32;;;;;;;;;;;17.20;43.70;;;;;;5060107;28;19947;-88
2022/11/23 13:27:59;;;;;;;;;;;17.20;42.50;;;;;;5073585;28;20363;-88
2022/11/23 13:30:37;;;;;;;;;;;17.20;42.20;;;;;;5063570;28;20030;-89
2022/11/23 13:33:15;;;;;;;;;;;17.10;42.10;;;;;;5078146;28;19919;-87
2022/11/23 13:35:47;;;;;;;;;;;17.00;41.70;;;;;;5075917;28;19967;-89
2022/11/23 13:38:26;;;;;;;;;;;16.80;41.70;;;;;;5076850;28;19916;-88
2022/11/23 13:40:52;;;;;;;;;;;16.70;41.50;;;;;;5082805;28;20434;-86
2022/11/23 13:43:20;;;;;;;;;;;16.70;41.70;;;;;;5046011;28;19916;-87
2022/11/23 13:46:05;;;;;;;;;;;16.70;42.10;;;;;;5051784;28;19924;-88
2022/11/23 13:48:40;;;;;;;;;;;16.60;42.40;;;;;;5061066;28;19916;-88
2022/11/23 13:51:09;;;;;;;;;;;16.50;42.50;;;;;;5053662;28;19967;-88
2022/11/23 13:53:37;;;;;;;;;;;16.40;42.90;;;;;;5072923;28;20216;-87
2022/11/23 13:56:26;;;;;;;;;;;16.30;43.40;;;;;;5042550;28;19956;-87
2022/11/23 13:58:51;;;;;;;;;;;16.20;44.00;;;;;;5085492;28;19984;-87
2022/11/23 14:01:35;;;;;;;;;;;16.20;44.70;;;;;;5073001;28;19908;-88
2022/11/23 14:04:21;;;;;;;;;;;16.10;45.10;;;;;;5057811;28;19990;-88
2022/11/23 14:07:09;;;;;;;;;;;16.00;45.60;;;;;;5055253;28;20324;-87
2022/11/23 14:09:42;;;;;;;;;;;15.90;46.00;;;;;;5045679;28;19962;-89
2022/11/23 14:12:11;;;;;;;;;;;15.80;46.20;;;;;;5069457;28;20332;-89
2022/11/23 14:14:42;;;;;;;;;;;15.70;46.20;;;;;;5056563;28;20368;-86
2022/11/23 14:17:20;;;;;;;;;;;15.60;45.80;;;;;;5076984;28;20008;-89
2022/11/23 14:20:04;;;;;;;;;;;15.50;45.50;;;;;;5057537;28;19913;-88
2022/11/23 14:22:47;;;;;;;;;;;15.40;45.30;;;;;;5079109;28;19919;-88